Time;durP1;ratioP1;P1;durP2;ratioP2;P2;SDS_P1;SDS_P2;PMS_P1;PMS_P2;Temp;Humidity;BMP_temperature;BMP_pressure;BME280_temperature;BME280_humidity;BME280_pressure;Samples;Min_cycle;Max_cycle;Signal;HPM_P1;HPM_P2
2023/08/03 00:01:41;;;;;;;2.22;0.80;;;;;;;17.88;100.00;98895.25;5252151;28;20036;-74
2023/08/03 00:04:12;;;;;;;3.97;1.25;;;;;;;17.90;100.00;98902.97;5250750;28;20087;-74
2023/08/03 00:06:44;;;;;;;2.97;1.27;;;;;;;17.87;100.00;98903.41;5253695;28;20032;-74
2023/08/03 00:09:15;;;;;;;2.45;1.13;;;;;;;17.91;100.00;98904.56;5251256;28;20111;-74
2023/08/03 00:11:46;;;;;;;3.78;1.50;;;;;;;17.97;100.00;98909.78;5253548;28;20100;-74
2023/08/03 00:14:18;;;;;;;3.42;1.27;;;;;;;17.98;100.00;98905.31;5252973;28;20021;-74
2023/08/03 00:16:49;;;;;;;6.47;1.45;;;;;;;18.02;100.00;98911.75;5252389;28;20029;-74
2023/08/03 00:19:20;;;;;;;3.08;1.67;;;;;;;18.03;100.00;98916.03;5234874;28;20052;-74
2023/08/03 00:21:51;;;;;;;5.63;2.15;;;;;;;18.06;100.00;98917.41;5252726;28;20099;-74
2023/08/03 00:24:24;;;;;;;5.93;2.00;;;;;;;18.05;100.00;98916.63;5252970;28;20059;-74
2023/08/03 00:26:55;;;;;;;3.83;1.98;;;;;;;18.07;100.00;98916.38;5251624;28;20028;-75
2023/08/03 00:29:27;;;;;;;3.58;2.08;;;;;;;18.03;100.00;98928.47;5252836;28;20889;-75
2023/08/03 00:32:00;;;;;;;7.00;2.67;;;;;;;18.06;100.00;98934.13;5252620;28;20711;-75
2023/08/03 00:34:31;;;;;;;6.88;2.85;;;;;;;18.02;100.00;98942.75;5253109;28;20951;-75
2023/08/03 00:37:03;;;;;;;6.70;3.08;;;;;;;17.98;100.00;98947.69;5233720;28;20087;-75
2023/08/03 00:39:34;;;;;;;7.95;3.10;;;;;;;18.02;100.00;98948.06;5252960;28;20028;-75
2023/08/03 00:42:06;;;;;;;5.95;3.05;;;;;;;18.04;100.00;98960.06;5252951;28;20033;-74
2023/08/03 00:44:37;;;;;;;10.23;3.58;;;;;;;17.97;100.00;98957.47;5252411;28;20056;-75
2023/08/03 00:47:08;;;;;;;10.68;4.00;;;;;;;18.01;100.00;98968.44;5251538;28;20028;-75
2023/08/03 00:49:40;;;;;;;8.43;4.18;;;;;;;17.96;100.00;98965.66;5234606;28;20469;-75
2023/08/03 00:52:11;;;;;;;9.45;3.47;;;;;;;17.95;100.00;98970.13;5252553;28;20703;-74
2023/08/03 00:54:43;;;;;;;7.55;3.95;;;;;;;18.01;100.00;98980.88;5252763;28;20021;-73
2023/08/03 00:57:14;;;;;;;8.88;4.07;;;;;;;17.95;100.00;98975.44;5252204;28;20033;-74
2023/08/03 00:59:45;;;;;;;7.95;3.97;;;;;;;18.07;100.00;98995.88;5256139;28;20056;-74
2023/08/03 01:02:17;;;;;;;9.98;4.57;;;;;;;18.07;100.00;98995.88;5237747;28;20021;-74
2023/08/03 01:04:48;;;;;;;9.03;4.77;;;;;;;18.09;100.00;98991.16;5256679;28;20540;-74
2023/08/03 01:07:21;;;;;;;9.40;4.85;;;;;;;18.04;100.00;98991.84;5255452;28;21021;-74
2023/08/03 01:09:52;;;;;;;11.32;4.72;;;;;;;18.05;100.00;99005.91;5254961;28;20029;-74
2023/08/03 01:12:24;;;;;;;11.10;4.63;;;;;;;18.03;100.00;99000.81;5256252;28;20040;-74
2023/08/03 01:14:55;;;;;;;9.75;5.18;;;;;;;18.08;100.00;99016.06;5254896;28;20024;-74
2023/08/03 01:17:27;;;;;;;7.93;5.28;;;;;;;18.08;100.00;99014.22;5255396;28;20029;-74
2023/08/03 01:19:58;;;;;;;6.63;4.95;;;;;;;18.09;100.00;99026.44;5256100;28;20028;-74
2023/08/03 01:22:31;;;;;;;9.85;5.00;;;;;;;18.12;100.00;99027.84;5256365;28;20025;-74
2023/08/03 01:25:03;;;;;;;9.50;4.72;;;;;;;18.08;100.00;99027.47;5255593;28;20690;-74
2023/08/03 01:27:35;;;;;;;6.60;3.92;;;;;;;18.14;100.00;99037.16;5255324;28;20033;-75
2023/08/03 01:30:06;;;;;;;10.02;4.38;;;;;;;18.14;100.00;99047.75;5255634;28;20389;-75
2023/08/03 01:32:38;;;;;;;8.27;4.20;;;;;;;18.15;100.00;99043.28;5255375;28;20124;-74
2023/08/03 01:35:09;;;;;;;5.25;3.67;;;;;;;18.15;100.00;99053.91;5255643;28;20469;-74
2023/08/03 01:37:41;;;;;;;8.80;3.97;;;;;;;18.14;100.00;99049.59;5255220;28;20563;-74
2023/08/03 01:40:13;;;;;;;8.30;3.38;;;;;;;18.14;100.00;99047.75;5255438;28;20032;-74
2023/08/03 01:42:45;;;;;;;6.70;3.78;;;;;;;18.16;100.00;99058.16;5255295;28;20115;-74
2023/08/03 01:45:16;;;;;;;8.82;3.53;;;;;;;18.14;100.00;99052.25;5256285;28;20100;-74
2023/08/03 01:47:47;;;;;;;6.53;3.00;;;;;;;18.14;100.00;99066.31;5236914;28;20052;-74
2023/08/03 01:50:19;;;;;;;6.93;2.88;;;;;;;18.17;100.00;99057.91;5255654;28;20012;-74
2023/08/03 01:52:50;;;;;;;5.90;2.78;;;;;;;18.13;100.00;99055.94;5255865;28;20130;-74
2023/08/03 01:55:21;;;;;;;8.35;3.20;;;;;;;18.12;100.00;99055.13;5255226;28;20102;-74
2023/08/03 01:57:52;;;;;;;7.85;2.53;;;;;;;18.15;100.00;99056.53;5255141;28;20024;-74
2023/08/03 02:00:24;;;;;;;4.27;1.73;;;;;;;18.17;100.00;99052.63;5254675;28;20029;-74
2023/08/03 02:02:55;;;;;;;6.00;2.15;;;;;;;18.17;100.00;99057.91;5255533;28;20267;-74
2023/08/03 02:05:26;;;;;;;4.93;1.80;;;;;;;18.15;100.00;99062.66;5255354;28;20020;-74
2023/08/03 02:07:57;;;;;;;5.18;2.15;;;;;;;18.14;100.00;99061.00;5254280;28;20032;-75
2023/08/03 02:10:29;;;;;;;5.70;1.85;;;;;;;18.10;100.00;99065.13;5254575;28;20107;-74
2023/08/03 02:13:00;;;;;;;4.30;2.30;;;;;;;18.10;100.00;99046.59;5254717;28;20052;-74
2023/08/03 02:15:31;;;;;;;6.03;2.45;;;;;;;18.10;100.00;99057.19;5253965;28;20032;-75
2023/08/03 02:18:03;;;;;;;9.88;3.17;;;;;;;18.13;100.00;99050.66;5254290;28;20040;-75
2023/08/03 02:20:34;;;;;;;6.40;2.55;;;;;;;18.14;100.00;99054.91;5254369;28;20068;-75
2023/08/03 02:23:05;;;;;;;10.80;3.55;;;;;;;18.11;100.00;99058.84;5236433;28;20029;-75
2023/08/03 02:25:36;;;;;;;13.13;4.22;;;;;;;18.10;100.00;99057.19;5320529;23;20073;-68
2023/08/03 02:28:08;;;;;;;16.40;4.40;;;;;;;18.12;100.00;99059.63;5313761;28;20024;-66
2023/08/03 02:30:39;;;;;;;12.30;4.07;;;;;;;18.13;100.00;99063.91;5319358;28;20114;-66
2023/08/03 02:33:10;;;;;;;13.40;4.30;;;;;;;18.10;100.00;99057.19;5318508;28;20023;-66
2023/08/03 02:35:42;;;;;;;13.25;4.40;;;;;;;18.12;100.00;99052.50;5308138;28;20106;-66
2023/08/03 02:38:13;;;;;;;10.13;3.65;;;;;;;18.14;100.00;99071.63;5304134;28;20452;-66
2023/08/03 02:40:44;;;;;;;11.10;3.28;;;;;;;18.15;100.00;99064.50;5306236;28;20020;-66
2023/08/03 02:43:16;;;;;;;11.13;3.45;;;;;;;18.09;100.00;99052.94;5306341;28;20024;-66
2023/08/03 02:45:47;;;;;;;12.18;3.58;;;;;;;18.05;100.00;99056.25;5303708;28;20072;-66
2023/08/03 02:48:18;;;;;;;12.70;4.38;;;;;;;18.08;100.00;99050.50;5309636;28;20501;-66
2023/08/03 02:50:49;;;;;;;10.35;4.30;;;;;;;18.06;100.00;99053.38;5307744;28;20020;-66
2023/08/03 02:53:21;;;;;;;14.70;4.28;;;;;;;18.06;100.00;99055.22;5305627;28;20020;-66
2023/08/03 02:55:52;;;;;;;13.10;3.53;;;;;;;18.04;100.00;99063.41;5305580;28;20069;-66
2023/08/03 02:58:23;;;;;;;12.93;4.30;;;;;;;18.02;100.00;99059.34;5309429;28;20023;-66
2023/08/03 03:00:54;;;;;;;12.27;4.10;;;;;;;18.04;100.00;99060.75;5307237;28;20019;-66
2023/08/03 03:03:26;;;;;;;12.23;3.90;;;;;;;18.03;100.00;99067.06;5309172;28;20039;-66
2023/08/03 03:05:57;;;;;;;11.30;3.75;;;;;;;18.05;100.00;99080.09;5304172;28;20084;-66
2023/08/03 03:08:28;;;;;;;12.32;3.58;;;;;;;18.03;100.00;99066.25;5304861;28;20024;-66
2023/08/03 03:10:59;;;;;;;13.98;4.00;;;;;;;18.04;100.00;99076.66;5305663;28;20122;-66
2023/08/03 03:13:31;;;;;;;13.05;3.47;;;;;;;18.07;100.00;99075.38;5306363;28;20016;-66
2023/08/03 03:16:02;;;;;;;11.90;4.03;;;;;;;18.10;100.00;99075.75;5305910;28;20028;-66
2023/08/03 03:18:33;;;;;;;12.77;3.50;;;;;;;18.07;100.00;99078.03;5308082;28;20028;-66
2023/08/03 03:21:05;;;;;;;12.27;3.70;;;;;;;18.00;100.00;99078.13;5304547;28;20035;-66
2023/08/03 03:23:36;;;;;;;12.35;3.47;;;;;;;17.97;100.00;99094.47;5304077;28;20028;-66
2023/08/03 03:26:07;;;;;;;7.15;3.22;;;;;;;17.97;100.00;99084.66;5306933;28;20032;-66
2023/08/03 03:28:38;;;;;;;9.05;3.10;;;;;;;17.97;100.00;99091.81;5307878;28;20035;-66
2023/08/03 03:31:10;;;;;;;11.95;3.47;;;;;;;17.97;100.00;99094.47;5302774;28;20040;-66
2023/08/03 03:33:41;;;;;;;10.20;3.03;;;;;;;17.94;100.00;99105.50;5305285;28;20122;-66
2023/08/03 03:36:12;;;;;;;13.00;3.30;;;;;;;17.92;100.00;99108.38;5304179;28;20044;-66
2023/08/03 03:38:44;;;;;;;9.45;3.40;;;;;;;17.91;100.00;99105.94;5308088;28;20288;-66
2023/08/03 03:41:15;;;;;;;10.07;3.25;;;;;;;17.95;100.00;99117.69;5304943;28;20146;-66
2023/08/03 03:43:46;;;;;;;8.60;2.70;;;;;;;17.88;100.00;99114.31;5305775;28;20027;-66
2023/08/03 03:46:18;;;;;;;9.45;2.55;;;;;;;17.88;100.00;99101.06;5303784;28;20019;-66
2023/08/03 03:48:49;;;;;;;8.90;3.00;;;;;;;17.83;100.00;99122.13;5305354;28;20045;-66
2023/08/03 03:51:21;;;;;;;8.02;2.75;;;;;;;17.88;100.00;99131.03;5303025;28;20024;-66
2023/08/03 03:53:52;;;;;;;8.32;2.45;;;;;;;17.83;100.00;99149.41;5304434;28;20066;-66
2023/08/03 03:56:24;;;;;;;10.85;2.45;;;;;;;17.87;100.00;99142.66;5305928;28;20508;-66
2023/08/03 03:58:55;;;;;;;5.65;2.38;;;;;;;17.83;100.00;99149.41;5305572;28;20031;-66
2023/08/03 04:01:26;;;;;;;8.40;2.63;;;;;;;17.79;100.00;99158.81;5305249;28;20026;-66
2023/08/03 04:03:58;;;;;;;8.23;3.13;;;;;;;17.81;100.00;99158.63;5301551;28;20028;-66
2023/08/03 04:06:29;;;;;;;4.95;2.00;;;;;;;17.84;100.00;99159.00;5303267;28;20024;-66
2023/08/03 04:09:00;;;;;;;6.07;2.28;;;;;;;17.85;100.00;99154.50;5304198;28;20023;-66
2023/08/03 04:11:31;;;;;;;8.25;2.63;;;;;;;17.86;100.00;99161.41;5304525;28;20059;-66
2023/08/03 04:14:03;;;;;;;6.32;2.55;;;;;;;17.88;100.00;99172.59;5303888;28;20027;-66
2023/08/03 04:16:34;;;;;;;9.05;2.67;;;;;;;17.85;100.00;99173.84;5303944;28;20032;-66
2023/08/03 04:19:05;;;;;;;6.40;2.92;;;;;;;17.84;100.00;99177.53;5303779;28;20035;-67
2023/08/03 04:21:37;;;;;;;7.88;2.25;;;;;;;17.84;100.00;99168.75;5305948;28;20035;-66
2023/08/03 04:24:08;;;;;;;6.75;2.22;;;;;;;17.85;100.00;99181.00;5304213;28;20123;-66
2023/08/03 04:26:39;;;;;;;7.63;2.33;;;;;;;17.82;100.00;99186.72;5307698;28;20030;-67
2023/08/03 04:29:11;;;;;;;5.85;2.33;;;;;;;17.82;100.00;99178.78;5305684;28;20598;-66
2023/08/03 04:31:42;;;;;;;5.05;1.80;;;;;;;17.81;100.00;99195.72;5304079;28;20031;-66
2023/08/03 04:34:13;;;;;;;5.65;2.15;;;;;;;17.81;100.00;99204.47;5306131;28;20038;-67
2023/08/03 04:36:47;;;;;;;7.00;2.00;;;;;;;17.81;100.00;99201.00;5307577;28;20031;-66
2023/08/03 04:39:18;;;;;;;4.72;1.83;;;;;;;17.74;100.00;99217.72;5309944;28;20399;-66
2023/08/03 04:41:49;;;;;;;6.55;1.67;;;;;;;17.78;100.00;99222.63;5308091;28;20028;-66
2023/08/03 04:44:21;;;;;;;4.25;1.65;;;;;;;17.81;100.00;99227.50;5307823;28;20027;-66
2023/08/03 04:46:52;;;;;;;5.78;2.10;;;;;;;17.85;100.00;99223.38;5307976;28;20028;-66
2023/08/03 04:49:25;;;;;;;2.85;1.23;;;;;;;17.83;100.00;99231.53;5306094;28;20019;-66
2023/08/03 04:51:56;;;;;;;3.85;1.40;;;;;;;17.83;100.00;99238.69;5309514;28;20392;-66
2023/08/03 04:54:28;;;;;;;3.45;1.50;;;;;;;17.88;100.00;99238.81;5310363;28;20765;-66
2023/08/03 04:56:59;;;;;;;2.63;1.15;;;;;;;17.91;100.00;99241.03;5309290;28;20024;-66
2023/08/03 04:59:30;;;;;;;3.05;1.30;;;;;;;17.90;100.00;99244.72;5308769;28;20521;-66
2023/08/03 05:02:01;;;;;;;4.50;1.40;;;;;;;17.89;100.00;99246.56;5308458;28;20081;-66
2023/08/03 05:04:33;;;;;;;3.78;1.88;;;;;;;17.89;100.00;99248.41;5308165;27;20023;-66
2023/08/03 05:07:04;;;;;;;6.60;1.40;;;;;;;17.93;100.00;99254.91;5308677;28;20036;-66
2023/08/03 05:09:35;;;;;;;4.78;1.83;;;;;;;17.89;100.00;99259.00;5305500;28;20331;-66
2023/08/03 05:12:07;;;;;;;4.35;1.80;;;;;;;17.92;100.00;99267.34;5306568;28;20471;-73
2023/08/03 05:14:38;;;;;;;4.35;1.48;;;;;;;17.97;100.00;99264.84;5306906;28;20024;-66
2023/08/03 05:17:09;;;;;;;2.90;1.27;;;;;;;17.82;100.00;99274.16;5308071;28;20058;-68
2023/08/03 05:19:41;;;;;;;4.10;1.38;;;;;;;17.89;100.00;99277.56;5304728;28;20478;-68
2023/08/03 05:22:12;;;;;;;6.15;1.48;;;;;;;17.84;100.00;99280.88;5308011;28;20030;-68
2023/08/03 05:24:43;;;;;;;2.65;1.35;;;;;;;17.88;100.00;99289.16;5305526;28;20036;-66
2023/08/03 05:27:15;;;;;;;7.38;1.50;;;;;;;17.87;100.00;99296.31;5309421;28;20046;-66
2023/08/03 05:29:46;;;;;;;8.65;2.10;;;;;;;17.83;100.00;99292.47;5303799;28;20042;-66
2023/08/03 05:32:17;;;;;;;5.65;1.50;;;;;;;17.89;100.00;99298.75;5307494;28;20468;-67
2023/08/03 05:34:49;;;;;;;3.35;1.15;;;;;;;17.99;100.00;99302.56;5307046;28;20015;-66
2023/08/03 05:37:21;;;;;;;6.95;1.83;;;;;;;17.96;100.00;99299.53;5306405;28;20040;-67
2023/08/03 05:39:52;;;;;;;6.07;1.33;;;;;;;18.05;100.00;99308.81;5306343;28;20023;-67
2023/08/03 05:42:24;;;;;;;8.20;1.70;;;;;;;18.04;100.00;99311.69;5307431;28;20092;-67
2023/08/03 05:44:55;;;;;;;9.73;1.87;;;;;;;17.99;100.00;99314.97;5303790;28;20388;-67
2023/08/03 05:47:27;;;;;;;8.40;1.83;;;;;;;17.99;100.00;99318.44;5303690;28;20285;-67
2023/08/03 05:49:58;;;;;;;9.27;2.08;;;;;;;18.01;100.00;99320.06;5304225;28;20028;-67
2023/08/03 05:52:30;;;;;;;7.57;1.70;;;;;;;17.93;100.00;99311.34;5308268;28;20024;-67
2023/08/03 05:55:01;;;;;;;5.85;1.80;;;;;;;17.99;100.00;99334.34;5307647;28;20027;-67
2023/08/03 05:57:33;;;;;;;8.85;2.53;;;;;;;18.01;100.00;99343.91;5305438;28;20066;-66
2023/08/03 06:00:14;;;;;;;7.00;1.58;;;;;;;18.11;100.00;99342.41;5308259;28;20097;-67
2023/08/03 06:02:46;;;;;;;4.88;1.60;;;;;;;17.95;100.00;99342.91;5304757;28;20477;-66
2023/08/03 06:05:39;;;;;;;3.60;1.10;;;;;;;18.25;100.00;99345.75;5306647;28;20043;-66
2023/08/03 06:08:18;;;;;;;7.13;1.60;;;;;;;18.01;100.00;99342.06;5306826;28;20266;-67
2023/08/03 06:10:52;;;;;;;7.78;1.75;;;;;;;18.03;100.00;99363.84;5305333;28;20028;-67
2023/08/03 06:13:31;;;;;;;6.05;1.75;;;;;;;18.18;100.00;99364.38;5307150;28;20343;-66
2023/08/03 06:16:07;;;;;;;7.88;2.10;;;;;;;18.12;100.00;99364.41;5308056;28;20443;-67
2023/08/03 06:18:44;;;;;;;7.75;1.95;;;;;;;18.20;100.00;99370.25;5306542;28;20491;-67
2023/08/03 06:21:17;;;;;;;6.55;2.00;;;;;;;18.06;100.00;99376.69;5308383;28;20034;-67
2023/08/03 06:23:51;;;;;;;8.05;2.03;;;;;;;18.16;100.00;99373.56;5306674;28;20042;-67
2023/08/03 06:26:23;;;;;;;8.55;1.90;;;;;;;18.06;100.00;99375.88;5304109;28;20213;-66
2023/08/03 06:28:55;;;;;;;6.22;2.13;;;;;;;18.08;100.00;99379.94;5305290;28;20047;-67
2023/08/03 06:31:40;;;;;;;8.30;1.83;;;;;;;18.23;100.00;99379.63;5304561;28;20030;-66
2023/08/03 06:34:12;;;;;;;9.23;1.70;;;;;;;18.05;100.00;99377.72;5307373;28;20040;-67
2023/08/03 06:36:44;;;;;;;6.80;1.65;;;;;;;18.09;100.00;99384.22;5307293;28;20024;-67
2023/08/03 06:39:15;;;;;;;5.28;1.60;;;;;;;18.08;100.00;99400.34;5308278;28;20077;-67
2023/08/03 06:41:46;;;;;;;6.88;2.22;;;;;;;18.09;100.00;99404.59;5304810;28;20430;-66
2023/08/03 06:44:17;;;;;;;7.07;1.50;;;;;;;18.16;100.00;99408.84;5306074;28;20027;-67
2023/08/03 06:46:49;;;;;;;5.30;1.55;;;;;;;18.16;100.00;99414.13;5304883;28;20089;-66
2023/08/03 06:49:20;;;;;;;5.78;1.77;;;;;;;18.16;100.00;99411.47;5304353;28;20046;-67
2023/08/03 06:51:51;;;;;;;13.82;1.85;;;;;;;18.10;100.00;99420.28;5305737;28;20559;-67
2023/08/03 06:54:23;;;;;;;7.65;1.95;;;;;;;18.10;100.00;99425.56;5302365;28;20445;-67
2023/08/03 06:56:54;;;;;;;5.13;1.52;;;;;;;18.16;100.00;99431.88;5306415;28;20477;-67
2023/08/03 06:59:25;;;;;;;4.30;1.58;;;;;;;18.17;100.00;99439.59;5303007;28;20033;-67
2023/08/03 07:01:57;;;;;;;3.77;1.30;;;;;;;18.21;100.00;99443.44;5303972;28;20388;-67
2023/08/03 07:04:28;;;;;;;6.70;1.73;;;;;;;18.26;100.00;99442.00;5306232;28;20223;-67
2023/08/03 07:06:59;;;;;;;2.80;0.90;;;;;;;18.33;100.00;99448.88;5303278;28;20046;-67
2023/08/03 07:09:30;;;;;;;4.93;1.40;;;;;;;18.36;100.00;99460.91;5304994;28;20019;-68
2023/08/03 07:12:02;;;;;;;9.30;2.03;;;;;;;18.33;100.00;99459.47;5305883;28;20465;-68
2023/08/03 07:14:33;;;;;;;5.55;1.60;;;;;;;18.40;100.00;99470.06;5306342;28;20370;-67
2023/08/03 07:17:05;;;;;;;6.43;1.58;;;;;;;18.38;100.00;99469.47;5303131;28;20032;-67
2023/08/03 07:19:36;;;;;;;6.35;1.63;;;;;;;18.48;100.00;99478.56;5305308;28;20036;-68
2023/08/03 07:22:08;;;;;;;3.78;1.25;;;;;;;18.56;100.00;99474.00;5306772;28;20027;-68
2023/08/03 07:24:40;;;;;;;5.97;1.42;;;;;;;18.60;100.00;99475.19;5305734;28;20405;-67
2023/08/03 07:27:11;;;;;;;5.95;1.90;;;;;;;18.56;100.00;99488.13;5304581;28;20047;-67
2023/08/03 07:29:43;;;;;;;5.30;2.05;;;;;;;18.64;100.00;99477.22;5306373;28;20024;-68
2023/08/03 07:32:15;;;;;;;5.18;1.65;;;;;;;18.57;100.00;99481.78;5304799;28;20488;-67
2023/08/03 07:34:46;;;;;;;5.20;1.42;;;;;;;18.73;100.00;99477.00;5305558;28;20073;-67
2023/08/03 07:37:17;;;;;;;5.63;1.60;;;;;;;18.81;100.00;99485.47;5303507;28;20036;-67
2023/08/03 07:39:48;;;;;;;8.48;1.52;;;;;;;18.86;100.00;99487.47;5302907;28;20020;-67
2023/08/03 07:42:20;;;;;;;4.83;1.70;;;;;;;18.84;100.00;99489.56;5303212;28;20635;-67
2023/08/03 07:44:52;;;;;;;5.78;1.83;;;;;;;18.77;100.00;99502.06;5304081;28;20016;-67
2023/08/03 07:47:23;;;;;;;5.82;1.60;;;;;;;18.73;100.00;99498.22;5308214;28;20027;-67
2023/08/03 07:49:55;;;;;;;5.82;1.52;;;;;;;18.78;100.00;99501.03;5303376;28;20435;-67
2023/08/03 07:52:26;;;;;;;7.05;2.15;;;;;;;18.76;100.00;99508.41;5299863;28;20467;-67
2023/08/03 07:54:57;;;;;;;7.75;2.13;;;;;;;18.78;100.00;99506.31;5302215;28;20039;-67
2023/08/03 07:57:29;;;;;;;7.70;2.15;;;;;;;18.69;100.00;99508.41;5299596;28;20063;-69
2023/08/03 08:00:00;;;;;;;7.80;1.77;;;;;;;18.63;100.00;99515.38;5297463;28;20453;-67
2023/08/03 08:02:31;;;;;;;6.38;1.73;;;;;;;18.65;100.00;99531.09;5302818;28;20112;-68
2023/08/03 08:05:03;;;;;;;7.63;2.03;;;;;;;18.62;100.00;99534.97;5298957;28;20526;-67
2023/08/03 08:07:34;;;;;;;6.80;2.43;;;;;;;18.56;100.00;99538.50;5303463;28;20028;-68
2023/08/03 08:10:06;;;;;;;10.93;2.75;;;;;;;18.53;100.00;99554.84;5303304;28;20362;-68
2023/08/03 08:12:38;;;;;;;9.73;2.07;;;;;;;18.43;100.00;99543.88;5304091;28;20397;-67
2023/08/03 08:15:09;;;;;;;9.40;2.13;;;;;;;18.39;100.00;99554.09;5304087;28;20469;-67
2023/08/03 08:17:40;;;;;;;8.80;2.00;;;;;;;18.43;100.00;99549.19;5300271;28;20531;-67
2023/08/03 08:20:11;;;;;;;5.37;1.57;;;;;;;18.48;100.00;99557.31;5301340;28;20058;-67
2023/08/03 08:22:43;;;;;;;9.63;2.60;;;;;;;18.60;100.00;99563.56;5299089;28;20028;-68
2023/08/03 08:25:14;;;;;;;6.47;1.60;;;;;;;18.58;100.00;99573.56;5296978;28;20471;-66
2023/08/03 08:27:48;;;;;;;6.80;2.08;;;;;;;18.66;100.00;99583.13;5298451;28;20032;-67
2023/08/03 08:30:19;;;;;;;7.60;1.77;;;;;;;18.59;100.00;99580.50;5300731;28;20114;-66
2023/08/03 08:32:52;;;;;;;5.68;1.85;;;;;;;18.66;100.00;99586.56;5302653;28;20181;-67
2023/08/03 08:35:23;;;;;;;7.45;1.70;;;;;;;18.63;100.00;99605.56;5302037;28;20557;-67
2023/08/03 08:37:54;;;;;;;7.53;1.70;;;;;;;18.64;100.00;99601.91;5300675;28;20020;-67
2023/08/03 08:40:29;;;;;;;5.50;1.98;;;;;;;18.84;100.00;99604.47;5292363;28;20026;-67
2023/08/03 08:43:00;;;;;;;7.32;1.70;;;;;;;18.71;100.00;99604.53;5300516;28;20089;-67
2023/08/03 08:45:36;;;;;;;6.53;1.70;;;;;;;18.82;100.00;99617.13;5293007;28;20013;-67
2023/08/03 08:48:07;;;;;;;6.65;1.77;;;;;;;18.73;100.00;99626.38;5301883;28;20094;-67
2023/08/03 08:50:40;;;;;;;5.30;1.45;;;;;;;18.81;100.00;99620.00;5294804;28;20024;-67
2023/08/03 08:53:14;;;;;;;4.07;1.20;;;;;;;18.80;100.00;99631.66;5296710;28;20110;-66
2023/08/03 08:55:46;;;;;;;3.85;1.20;;;;;;;18.82;100.00;99626.94;5298157;28;20374;-67
2023/08/03 08:58:17;;;;;;;4.05;1.27;;;;;;;18.87;100.00;99630.56;5304534;28;20483;-67
2023/08/03 09:00:49;;;;;;;4.55;1.55;;;;;;;18.88;100.00;99636.69;5299647;28;20024;-67
2023/08/03 09:03:20;;;;;;;3.58;1.20;;;;;;;18.79;100.00;99640.63;5304692;28;20495;-67
2023/08/03 09:05:59;;;;;;;3.25;1.00;;;;;;;18.82;100.00;99645.50;5299808;28;20479;-67
2023/08/03 09:08:48;;;;;;;2.58;0.90;;;;;;;18.87;100.00;99653.66;5297660;28;20027;-67
2023/08/03 09:11:36;;;;;;;3.95;1.05;;;;;;;18.83;100.00;99661.22;5297147;28;20069;-67
2023/08/03 09:14:09;;;;;;;3.58;1.10;;;;;;;18.63;100.00;99669.22;5295950;28;20073;-67
2023/08/03 09:16:40;;;;;;;3.35;1.15;;;;;;;18.69;100.00;99671.06;5300201;28;20121;-67
2023/08/03 09:19:11;;;;;;;2.75;0.82;;;;;;;18.86;100.00;99678.53;5298836;28;20032;-67
2023/08/03 09:22:01;;;;;;;2.97;1.20;;;;;;;19.20;100.00;99683.44;5301301;28;20734;-67
2023/08/03 09:24:32;;;;;;;3.25;1.00;;;;;;;18.92;100.00;99701.59;5297324;28;20028;-67
2023/08/03 09:27:04;;;;;;;2.58;0.90;;;;;;;18.84;100.00;99697.34;5307439;28;20103;-68
2023/08/03 09:29:36;;;;;;;2.50;1.05;;;;;;;18.86;100.00;99702.44;5308442;28;20035;-67
2023/08/03 09:32:07;;;;;;;3.13;1.13;;;;;;;18.86;100.00;99707.72;5304448;28;20067;-67
2023/08/03 09:34:42;;;;;;;6.23;1.50;;;;;;;18.87;100.00;99720.81;5302017;28;20474;-67
2023/08/03 09:37:14;;;;;;;4.45;1.70;;;;;;;18.97;100.00;99725.66;5304716;28;20035;-67
2023/08/03 09:39:54;;;;;;;5.53;1.83;;;;;;;19.20;100.00;99720.59;5309240;28;20020;-68
2023/08/03 09:42:27;;;;;;;5.63;1.80;;;;;;;19.01;100.00;99741.97;5309935;28;20023;-67
2023/08/03 09:45:03;;;;;;;5.03;1.70;;;;;;;19.14;100.00;99742.72;5302989;28;20051;-67
2023/08/03 09:47:35;;;;;;;7.00;2.20;;;;;;;19.10;100.00;99746.00;5303895;28;20389;-67
2023/08/03 09:50:08;;;;;;;6.80;1.88;;;;;;;19.29;100.00;99754.91;5301633;28;20023;-67
2023/08/03 09:52:43;;;;;;;;;;;;;;;19.87;100.00;99763.50;5312049;28;20034;-67
2023/08/03 09:55:22;;;;;;;6.55;1.85;;;;;;;19.32;100.00;99757.09;5304285;28;19908;-67
2023/08/03 09:58:02;;;;;;;6.90;1.80;;;;;;;19.31;100.00;99750.97;5300711;28;20036;-67
2023/08/03 10:00:34;;;;;;;8.23;2.60;;;;;;;19.24;100.00;99766.13;5302832;28;20063;-67
2023/08/03 10:03:09;;;;;;;8.32;2.28;;;;;;;19.35;100.00;99772.63;5303856;28;20102;-67
2023/08/03 10:05:50;;;;;;;7.30;2.30;;;;;;;19.37;100.00;99773.22;5298812;28;20027;-67
2023/08/03 10:08:36;;;;;;;6.68;2.00;;;;;;;19.62;100.00;99786.56;5302010;28;20038;-67
2023/08/03 10:11:10;;;;;;;6.80;2.20;;;;;;;19.57;100.00;99789.84;5299045;28;20100;-67
2023/08/03 10:13:46;;;;;;;8.15;2.20;;;;;;;19.68;100.00;99794.50;5305949;28;20023;-67
2023/08/03 10:16:18;;;;;;;9.77;1.70;;;;;;;19.80;100.00;99789.31;5300936;28;20028;-67
2023/08/03 10:18:50;;;;;;;10.77;1.90;;;;;;;20.08;100.00;99793.41;5307105;28;20315;-67
2023/08/03 10:21:21;;;;;;;5.27;1.70;;;;;;;20.35;100.00;99791.31;5308795;28;20069;-67
2023/08/03 10:24:15;;;;;;;5.07;1.97;;;;;;;20.85;100.00;99805.31;5304176;28;20070;-67
2023/08/03 10:26:54;;;;;;;5.32;1.55;;;;;;;20.90;100.00;99801.97;5301196;28;20488;-67
2023/08/03 10:29:55;;;;;;;6.90;1.60;;;;;;;21.05;100.00;99807.72;5303770;28;20036;-68
2023/08/03 10:32:28;;;;;;;5.72;1.65;;;;;;;20.85;100.00;99810.63;5304445;28;20042;-68
2023/08/03 10:35:38;;;;;;;4.45;1.50;;;;;;;21.10;100.00;99809.72;5304127;28;20020;-68
2023/08/03 10:38:18;;;;;;;5.03;1.52;;;;;;;21.11;100.00;99817.50;5305147;28;20036;-67
2023/08/03 10:41:19;;;;;;;3.20;1.33;;;;;;;21.17;100.00;99821.09;5308436;28;20039;-67
2023/08/03 10:44:05;;;;;;;4.63;1.48;;;;;;;21.18;100.00;99816.63;5304913;28;20031;-67
2023/08/03 10:46:40;;;;;;;5.28;1.55;;;;;;;21.09;100.00;99827.56;5306301;28;20103;-68
2023/08/03 10:49:17;;;;;;;6.13;1.80;;;;;;;21.41;100.00;99827.41;5307370;28;20786;-68
2023/08/03 10:52:17;;;;;;;6.22;1.60;;;;;;;21.49;100.00;99832.41;5305084;28;20028;-68
2023/08/03 10:54:49;;;;;;;4.28;1.40;;;;;;;21.22;100.00;99831.91;5305191;28;20027;-67
2023/08/03 10:57:24;;;;;;;6.37;1.70;;;;;;;21.23;100.00;99833.53;5304273;28;20024;-67
2023/08/03 11:00:03;;;;;;;5.40;2.08;;;;;;;21.42;100.00;99844.19;5301609;28;20482;-68
2023/08/03 11:02:34;;;;;;;8.00;1.90;;;;;;;21.25;100.00;99851.94;5301105;28;20809;-68
2023/08/03 11:05:06;;;;;;;5.80;1.70;;;;;;;21.19;100.00;99852.84;5304264;28;20122;-67
2023/08/03 11:07:42;;;;;;;4.77;1.93;;;;;;;21.16;100.00;99855.97;5302569;28;20085;-68
2023/08/03 11:10:16;;;;;;;4.88;1.92;;;;;;;21.07;100.00;99858.94;5303751;28;20098;-68
2023/08/03 11:12:48;;;;;;;7.32;2.38;;;;;;;21.06;100.00;99865.31;5304575;28;20384;-68
2023/08/03 11:15:20;;;;;;;5.63;2.03;;;;;;;21.02;100.00;99871.28;5299586;28;20058;-68
2023/08/03 11:17:51;;;;;;;8.00;2.20;;;;;;;20.81;100.00;99868.03;5289207;28;20090;-67
2023/08/03 11:20:22;;;;;;;5.73;2.00;;;;;;;20.76;100.00;99875.03;5298933;28;20027;-67
2023/08/03 11:22:54;;;;;;;8.40;2.63;;;;;;;20.62;100.00;99879.69;5303866;28;20030;-68
2023/08/03 11:25:25;;;;;;;7.97;2.57;;;;;;;20.60;100.00;99889.72;5304306;28;20059;-68
2023/08/03 11:27:56;;;;;;;7.00;2.47;;;;;;;20.45;100.00;99891.88;5301308;28;20040;-67
2023/08/03 11:30:28;;;;;;;6.03;2.30;;;;;;;20.42;100.00;99901.13;5301607;28;20051;-68
2023/08/03 11:32:59;;;;;;;6.50;2.10;;;;;;;20.28;100.00;99896.94;5301041;28;20451;-67
2023/08/03 11:35:31;;;;;;;5.87;2.10;;;;;;;20.37;100.00;99900.94;5302710;28;20035;-67
2023/08/03 11:38:06;;;;;;;4.87;1.93;;;;;;;20.48;100.00;99902.91;5303343;28;20116;-67
2023/08/03 11:40:37;;;;;;;4.28;1.88;;;;;;;20.47;100.00;99903.94;5300029;28;20024;-67
2023/08/03 11:43:08;;;;;;;5.60;2.07;;;;;;;20.44;100.00;99925.66;5302258;28;20023;-67
2023/08/03 11:45:43;;;;;;;5.47;1.73;;;;;;;20.46;100.00;99934.25;5303229;28;20016;-68
2023/08/03 11:48:14;;;;;;;5.55;1.92;;;;;;;20.26;100.00;99941.53;5302904;28;20463;-67
2023/08/03 11:50:46;;;;;;;4.40;1.80;;;;;;;20.42;100.00;99955.16;5302459;28;20045;-67